Time;durP1;ratioP1;P1;durP2;ratioP2;P2;SDS_P1;SDS_P2;PMS_P1;PMS_P2;Temp;Humidity;BMP_temperature;BMP_pressure;BME280_temperature;BME280_humidity;BME280_pressure;Samples;Min_cycle;Max_cycle;Signal;HPM_P1;HPM_P2
2022/03/30 00:00:45;;;;;;;26.80;23.90;;;14.70;68.80;;;;;;5021267;28;20197;-88
2022/03/30 00:03:11;;;;;;;26.07;23.33;;;14.70;69.20;;;;;;5022160;28;20269;-88
2022/03/30 00:05:38;;;;;;;26.83;21.57;;;14.50;74.30;;;;;;5019408;28;20204;-88
2022/03/30 00:08:05;;;;;;;28.43;21.87;;;14.30;72.40;;;;;;5012086;28;20296;-88
2022/03/30 00:10:32;;;;;;;28.03;23.20;;;14.30;71.90;;;;;;5008492;28;20220;-89
2022/03/30 00:12:58;;;;;;;25.60;23.00;;;14.30;73.20;;;;;;5004867;28;20174;-88
2022/03/30 00:15:24;;;;;;;28.17;21.60;;;14.10;73.50;;;;;;5004423;28;20212;-88
2022/03/30 00:17:51;;;;;;;27.27;24.13;;;14.10;72.30;;;;;;5005064;28;20210;-88
2022/03/30 00:20:17;;;;;;;27.83;24.90;;;14.10;74.20;;;;;;5020426;28;20197;-88
2022/03/30 00:22:43;;;;;;;28.27;24.00;;;14.10;74.80;;;;;;5005243;28;20611;-88
2022/03/30 00:25:11;;;;;;;26.00;23.37;;;14.10;73.60;;;;;;5014830;28;20190;-89
2022/03/30 00:27:38;;;;;;;30.17;26.83;;;14.10;72.50;;;;;;5014122;28;20202;-88
2022/03/30 00:30:06;;;;;;;29.33;25.17;;;14.10;75.20;;;;;;5011129;28;20200;-88
2022/03/30 00:32:32;;;;;;;32.70;28.50;;;14.20;74.50;;;;;;5006172;28;20190;-88
2022/03/30 00:34:58;;;;;;;31.07;27.67;;;14.30;76.30;;;;;;5021158;28;20552;-88
2022/03/30 00:37:24;;;;;;;30.87;26.07;;;14.30;77.60;;;;;;5017422;28;20235;-88
2022/03/30 00:39:51;;;;;;;27.73;24.87;;;14.20;77.60;;;;;;5004012;28;20198;-88
2022/03/30 00:42:19;;;;;;;29.07;25.07;;;14.20;77.10;;;;;;5004881;28;20182;-87
2022/03/30 00:44:49;;;;;;;33.47;26.50;;;14.10;76.60;;;;;;5032142;28;20188;-87
2022/03/30 00:47:16;;;;;;;32.20;26.57;;;14.20;78.70;;;;;;5033174;28;20231;-89
2022/03/30 00:49:42;;;;;;;29.83;25.73;;;14.30;78.20;;;;;;5022922;28;20192;-88
2022/03/30 00:52:09;;;;;;;29.77;25.87;;;14.20;78.20;;;;;;5023149;28;20240;-89
2022/03/30 00:54:36;;;;;;;30.97;26.33;;;14.10;79.50;;;;;;5015826;28;20214;-88
2022/03/30 00:57:02;;;;;;;26.40;23.10;;;14.10;78.00;;;;;;5002576;28;20201;-89
2022/03/30 00:59:28;;;;;;;29.30;25.63;;;14.10;76.20;;;;;;5003512;28;20213;-88
2022/03/30 01:01:53;;;;;;;25.83;23.13;;;14.10;77.40;;;;;;5003453;28;20185;-88
2022/03/30 01:04:19;;;;;;;31.40;26.97;;;14.20;76.60;;;;;;5002861;28;20180;-89
2022/03/30 01:06:45;;;;;;;31.83;26.53;;;14.20;77.40;;;;;;5003054;28;20213;-88
2022/03/30 01:09:11;;;;;;;30.17;25.33;;;14.20;77.00;;;;;;5003130;28;20712;-88
2022/03/30 01:11:37;;;;;;;30.80;25.57;;;14.10;75.00;;;;;;5001500;28;20706;-89
2022/03/30 01:14:04;;;;;;;29.50;25.27;;;14.10;76.10;;;;;;5018224;28;20214;-89
2022/03/30 01:16:30;;;;;;;27.30;22.30;;;14.00;75.90;;;;;;5002009;28;20210;-89
2022/03/30 01:19:07;;;;;;;30.67;24.60;;;14.10;76.20;;;;;;5002722;28;20241;-88
2022/03/30 01:21:34;;;;;;;28.90;25.57;;;14.00;75.30;;;;;;5002948;28;20184;-89
2022/03/30 01:24:00;;;;;;;29.50;26.00;;;14.10;77.80;;;;;;5016181;28;20607;-89
2022/03/30 01:26:26;;;;;;;30.87;26.10;;;14.00;77.20;;;;;;5019426;28;20259;-88
2022/03/30 01:28:52;;;;;;;28.90;24.03;;;14.00;77.00;;;;;;5020942;28;20706;-88
2022/03/30 01:34:02;;;;;;;27.80;23.67;;;13.90;76.00;;;;;;5022533;28;20181;-88
2022/03/30 01:36:28;;;;;;;27.07;22.87;;;13.90;76.00;;;;;;5021457;28;20210;-88
2022/03/30 01:38:54;;;;;;;28.37;24.53;;;14.00;75.10;;;;;;5021472;28;20235;-89
2022/03/30 01:41:20;;;;;;;26.27;23.43;;;14.00;76.70;;;;;;5037305;28;20252;-88
2022/03/30 01:43:45;;;;;;;27.73;24.30;;;13.90;79.10;;;;;;5041410;28;20189;-89
2022/03/30 01:46:11;;;;;;;26.60;23.67;;;13.80;79.20;;;;;;5039364;28;20315;-88
2022/03/30 01:48:36;;;;;;;25.67;22.80;;;13.80;81.30;;;;;;5040526;28;20212;-89
2022/03/30 01:51:02;;;;;;;28.00;23.80;;;13.70;80.80;;;;;;5041275;28;20215;-88
2022/03/30 01:53:28;;;;;;;28.60;24.43;;;13.70;81.80;;;;;;5041185;28;20239;-88
2022/03/30 01:55:53;;;;;;;28.27;25.17;;;13.60;82.60;;;;;;5039576;28;20638;-89
2022/03/30 01:58:20;;;;;;;29.20;23.77;;;13.50;83.00;;;;;;5040449;28;20527;-89
2022/03/30 02:00:46;;;;;;;24.93;22.40;;;13.50;82.20;;;;;;5038635;28;20640;-88
2022/03/30 02:03:12;;;;;;;33.03;26.20;;;13.60;81.10;;;;;;5020523;28;20185;-89
2022/03/30 02:05:38;;;;;;;27.47;24.57;;;13.60;80.90;;;;;;5021033;28;20181;-88
2022/03/30 02:08:04;;;;;;;26.40;22.73;;;13.50;81.60;;;;;;5002977;28;20214;-89
2022/03/30 02:10:31;;;;;;;26.37;23.67;;;13.50;80.60;;;;;;5016378;28;20216;-89
2022/03/30 02:12:58;;;;;;;26.33;23.50;;;13.50;80.50;;;;;;5001771;28;20184;-88
2022/03/30 02:15:24;;;;;;;25.47;22.93;;;13.40;80.60;;;;;;5020184;28;20263;-88
2022/03/30 02:17:51;;;;;;;29.03;24.17;;;13.60;78.90;;;;;;5020583;28;20200;-89
2022/03/30 02:20:16;;;;;;;28.33;24.00;;;13.60;78.60;;;;;;5020644;28;20188;-89
2022/03/30 02:22:44;;;;;;;29.87;26.00;;;13.70;78.50;;;;;;5020884;28;20184;-89
2022/03/30 02:25:10;;;;;;;29.93;25.67;;;13.60;78.80;;;;;;5020614;28;20237;-88
2022/03/30 02:27:37;;;;;;;28.83;24.73;;;13.60;81.00;;;;;;4999985;28;20226;-89
2022/03/30 02:30:04;;;;;;;26.67;23.70;;;13.50;80.60;;;;;;5005718;28;20213;-89
2022/03/30 02:32:30;;;;;;;27.27;23.97;;;13.40;79.90;;;;;;5000978;28;20206;-89
2022/03/30 02:34:55;;;;;;;29.40;24.53;;;13.30;79.30;;;;;;5002036;28;20642;-89
2022/03/30 02:37:21;;;;;;;28.47;24.37;;;13.30;78.80;;;;;;5006378;28;20295;-87
2022/03/30 02:39:47;;;;;;;28.90;24.80;;;13.40;79.80;;;;;;5010282;28;20671;-87
2022/03/30 02:42:13;;;;;;;31.10;25.90;;;13.40;80.40;;;;;;5001105;28;20194;-89
2022/03/30 02:44:39;;;;;;;29.37;24.10;;;13.10;80.40;;;;;;5001623;28;20218;-89
2022/03/30 02:47:05;;;;;;;25.73;23.13;;;12.70;82.10;;;;;;4998961;28;20593;-88
2022/03/30 02:49:31;;;;;;;28.77;24.37;;;12.80;83.20;;;;;;5015895;28;20213;-89
2022/03/30 02:51:57;;;;;;;24.80;22.17;;;12.80;83.40;;;;;;4998694;28;20202;-88
2022/03/30 02:54:24;;;;;;;26.80;23.07;;;12.90;80.60;;;;;;5017346;28;20193;-88
2022/03/30 02:56:50;;;;;;;27.17;23.17;;;13.00;80.10;;;;;;5019948;28;20194;-89
2022/03/30 02:59:16;;;;;;;26.30;23.50;;;13.10;78.70;;;;;;5020453;28;20193;-89
2022/03/30 03:01:41;;;;;;;25.97;23.17;;;13.20;80.80;;;;;;5019945;28;20181;-89
2022/03/30 03:04:07;;;;;;;29.83;22.80;;;13.10;83.00;;;;;;5019386;28;20182;-89
2022/03/30 03:06:33;;;;;;;26.87;24.07;;;13.00;82.80;;;;;;5019696;28;20197;-88
2022/03/30 03:08:59;;;;;;;27.90;24.83;;;12.80;83.20;;;;;;5012806;28;20689;-88
2022/03/30 03:11:25;;;;;;;26.73;21.70;;;12.80;83.10;;;;;;5015347;28;20270;-89
2022/03/30 03:13:51;;;;;;;26.53;22.73;;;12.80;80.20;;;;;;5020283;28;20182;-88
2022/03/30 03:16:18;;;;;;;27.97;24.93;;;12.80;81.00;;;;;;4999773;28;20234;-88
2022/03/30 03:18:44;;;;;;;33.53;27.97;;;12.80;82.90;;;;;;5004110;28;20516;-89
2022/03/30 03:21:10;;;;;;;29.60;25.13;;;12.40;85.40;;;;;;5001916;28;20188;-89
2022/03/30 03:23:36;;;;;;;32.63;26.47;;;12.30;88.10;;;;;;5018633;28;20194;-89
2022/03/30 03:26:01;;;;;;;30.83;24.47;;;12.30;89.00;;;;;;5020078;28;20212;-88
2022/03/30 03:28:27;;;;;;;28.73;25.60;;;12.30;89.10;;;;;;5020884;28;20188;-88
2022/03/30 03:30:53;;;;;;;30.83;25.03;;;12.40;90.40;;;;;;5020141;28;20207;-88
2022/03/30 03:33:19;;;;;;;32.30;26.13;;;12.30;88.40;;;;;;5019146;28;20187;-89
2022/03/30 03:35:45;;;;;;;32.63;27.60;;;12.50;88.80;;;;;;5019542;28;20251;-88
2022/03/30 03:38:11;;;;;;;38.37;28.60;;;12.50;91.00;;;;;;5019637;28;20918;-88
2022/03/30 03:40:37;;;;;;;27.97;24.63;;;12.30;92.20;;;;;;5020860;28;20213;-88
2022/03/30 03:43:04;;;;;;;26.57;23.83;;;12.20;92.00;;;;;;5023313;28;20207;-87
2022/03/30 03:45:30;;;;;;;25.27;22.60;;;12.40;91.60;;;;;;5023271;28;20185;-89
2022/03/30 03:47:56;;;;;;;30.13;25.50;;;12.60;90.30;;;;;;5023414;28;20237;-89
2022/03/30 03:50:22;;;;;;;28.60;23.83;;;12.70;90.40;;;;;;5023006;28;20700;-89
2022/03/30 03:52:48;;;;;;;27.73;25.00;;;12.80;89.60;;;;;;5005716;28;20253;-90
2022/03/30 03:55:14;;;;;;;34.60;27.67;;;12.50;90.70;;;;;;5003291;28;20197;-88
2022/03/30 03:57:41;;;;;;;35.40;26.70;;;12.40;94.60;;;;;;5003295;28;20205;-89
2022/03/30 04:00:09;;;;;;;30.53;26.60;;;12.00;93.70;;;;;;5003246;28;20189;-89
2022/03/30 04:02:35;;;;;;;28.60;25.50;;;12.00;95.50;;;;;;5017155;28;20196;-89
2022/03/30 04:05:01;;;;;;;29.07;24.60;;;11.80;95.90;;;;;;5015957;28;20193;-88
2022/03/30 04:07:26;;;;;;;27.37;23.13;;;11.60;95.10;;;;;;5030980;28;20210;-87
2022/03/30 04:09:52;;;;;;;31.10;23.93;;;11.40;96.00;;;;;;5036532;28;20183;-87
2022/03/30 04:12:18;;;;;;;32.67;24.10;;;11.30;99.40;;;;;;5035320;28;20604;-88
2022/03/30 04:14:44;;;;;;;29.50;23.40;;;11.10;99.90;;;;;;5022799;28;20182;-88
2022/03/30 04:17:11;;;;;;;31.03;23.63;;;11.10;99.90;;;;;;5020988;28;20201;-89
2022/03/30 04:19:37;;;;;;;31.03;23.67;;;11.00;99.90;;;;;;5023330;28;20195;-88
2022/03/30 04:22:03;;;;;;;29.63;24.43;;;10.80;99.90;;;;;;5016418;28;20179;-88
2022/03/30 04:24:28;;;;;;;32.47;24.30;;;10.80;99.90;;;;;;5012666;28;20324;-89
2022/03/30 04:26:54;;;;;;;31.97;24.73;;;10.80;99.90;;;;;;5002918;28;20218;-90
2022/03/30 04:29:20;;;;;;;32.63;24.30;;;10.80;99.90;;;;;;5008157;28;20197;-90
2022/03/30 04:31:46;;;;;;;31.17;24.13;;;10.80;99.90;;;;;;5020816;28;20205;-90
2022/03/30 04:34:12;;;;;;;35.33;25.27;;;10.80;99.90;;;;;;5021801;28;20192;-90
2022/03/30 04:36:37;;;;;;;34.30;26.13;;;10.90;99.90;;;;;;5004323;28;20206;-90
2022/03/30 04:39:03;;;;;;;33.23;24.60;;;10.80;99.90;;;;;;5020029;28;20276;-90
2022/03/30 04:41:29;;;;;;;37.57;24.47;;;10.90;99.90;;;;;;5019970;28;20182;-91
2022/03/30 04:43:55;;;;;;;32.83;25.70;;;10.70;99.90;;;;;;5021027;28;20671;-89
2022/03/30 04:46:21;;;;;;;31.67;24.13;;;10.70;99.90;;;;;;5022041;28;20239;-89
2022/03/30 04:48:47;;;;;;;34.03;25.90;;;10.60;99.90;;;;;;5022037;28;20181;-89
2022/03/30 04:51:12;;;;;;;29.50;23.77;;;10.70;99.90;;;;;;5020940;28;20206;-90
2022/03/30 04:53:38;;;;;;;28.80;23.50;;;10.70;99.90;;;;;;5021891;28;20204;-89
2022/03/30 04:56:04;;;;;;;32.70;24.57;;;10.60;99.90;;;;;;5021921;28;20201;-90
2022/03/30 04:58:30;;;;;;;28.80;23.50;;;10.60;99.90;;;;;;5022129;28;20202;-90
2022/03/30 05:00:56;;;;;;;28.03;24.03;;;10.60;99.90;;;;;;5009795;28;20257;-89
2022/03/30 05:03:22;;;;;;;30.10;25.57;;;10.60;99.90;;;;;;5017676;28;20214;-89
2022/03/30 05:05:47;;;;;;;33.00;23.50;;;10.60;99.90;;;;;;5028414;28;20195;-90
2022/03/30 05:08:13;;;;;;;31.93;22.37;;;10.80;99.90;;;;;;5042197;28;20236;-90
2022/03/30 05:10:39;;;;;;;26.10;22.00;;;11.00;99.90;;;;;;5020196;28;20215;-89
2022/03/30 05:13:05;;;;;;;27.60;21.73;;;11.00;99.90;;;;;;5004130;28;20171;-89
2022/03/30 05:15:32;;;;;;;26.73;21.13;;;10.90;99.90;;;;;;5001779;28;20647;-89
2022/03/30 05:17:58;;;;;;;29.37;20.87;;;11.00;99.90;;;;;;5015511;28;20207;-89
2022/03/30 05:20:26;;;;;;;21.73;19.53;;;11.00;99.90;;;;;;5000982;28;20519;-89
2022/03/30 05:22:52;;;;;;;24.63;19.63;;;11.10;99.90;;;;;;4997178;28;20191;-89
2022/03/30 05:25:21;;;;;;;24.33;19.07;;;11.20;99.90;;;;;;4998452;28;20302;-90
2022/03/30 05:27:47;;;;;;;27.17;19.63;;;11.40;99.90;;;;;;5031227;28;20207;-89
2022/03/30 05:30:13;;;;;;;27.97;18.80;;;11.50;99.90;;;;;;5039921;28;20180;-89
2022/03/30 05:32:44;;;;;;;20.67;16.67;;;11.70;99.90;;;;;;5027061;28;20674;-90
2022/03/30 05:35:10;;;;;;;25.83;17.40;;;11.70;99.90;;;;;;5018851;28;20212;-90
2022/03/30 05:37:36;;;;;;;24.57;19.80;;;11.80;99.90;;;;;;5016933;28;20775;-89
2022/03/30 05:40:04;;;;;;;26.90;17.97;;;12.00;99.90;;;;;;5018766;28;20657;-89
2022/03/30 05:42:30;;;;;;;24.17;18.60;;;12.00;99.10;;;;;;5018908;28;20256;-90
2022/03/30 05:44:55;;;;;;;26.97;20.53;;;12.20;99.90;;;;;;5019107;28;20259;-89
2022/03/30 05:47:21;;;;;;;23.83;20.97;;;12.20;99.90;;;;;;5019139;28;20246;-89
2022/03/30 05:49:47;;;;;;;24.13;20.47;;;12.20;99.90;;;;;;5020217;28;20185;-89
2022/03/30 05:52:13;;;;;;;30.60;20.83;;;12.10;99.90;;;;;;5022595;28;20725;-89
2022/03/30 05:54:39;;;;;;;24.97;20.43;;;12.10;99.90;;;;;;5021754;28;20197;-89
2022/03/30 05:57:05;;;;;;;22.17;19.53;;;12.10;99.90;;;;;;5020754;28;20197;-89
2022/03/30 05:59:40;;;;;;;20.60;18.40;;;12.20;99.90;;;;;;5019469;28;20571;-89
2022/03/30 06:02:08;;;;;;;28.10;20.00;;;12.20;99.90;;;;;;5017975;28;20196;-89
2022/03/30 06:04:34;;;;;;;23.73;19.80;;;12.20;99.90;;;;;;5018215;28;20589;-89
2022/03/30 06:07:00;;;;;;;23.67;19.17;;;12.30;99.90;;;;;;5018005;28;20202;-89
2022/03/30 06:09:27;;;;;;;22.13;19.07;;;12.30;99.60;;;;;;5018911;28;20619;-90
2022/03/30 06:11:54;;;;;;;24.37;21.37;;;12.30;99.70;;;;;;5018105;28;20244;-90
2022/03/30 06:14:20;;;;;;;25.20;20.00;;;12.40;98.80;;;;;;5019285;28;20222;-90
2022/03/30 06:16:46;;;;;;;27.73;24.57;;;12.40;99.20;;;;;;5017777;28;20261;-89
2022/03/30 06:19:13;;;;;;;27.43;22.90;;;12.50;99.40;;;;;;5019866;28;20208;-89
2022/03/30 06:21:42;;;;;;;28.67;24.33;;;12.40;99.20;;;;;;5022153;28;20184;-90
2022/03/30 06:24:09;;;;;;;24.17;21.67;;;12.50;99.90;;;;;;5017081;28;20255;-89
2022/03/30 06:26:36;;;;;;;22.57;18.63;;;12.50;99.90;;;;;;4999153;28;20203;-89
2022/03/30 06:29:02;;;;;;;26.50;20.90;;;12.50;99.80;;;;;;4998076;28;20238;-89
2022/03/30 06:31:28;;;;;;;25.17;21.63;;;12.50;99.80;;;;;;4997666;28;20214;-89
2022/03/30 06:33:54;;;;;;;24.10;21.50;;;12.60;99.90;;;;;;4999322;28;20187;-89
2022/03/30 06:36:19;;;;;;;21.17;18.87;;;12.60;99.90;;;;;;4998962;28;20266;-89
2022/03/30 06:38:45;;;;;;;23.10;20.57;;;12.60;99.00;;;;;;4999545;28;20191;-90
2022/03/30 06:41:12;;;;;;;22.70;20.47;;;12.60;99.90;;;;;;5002000;28;20220;-89
2022/03/30 06:43:42;;;;;;;22.07;18.20;;;12.50;99.60;;;;;;5002988;28;20689;-89
2022/03/30 06:46:09;;;;;;;23.37;18.77;;;12.40;99.90;;;;;;5002847;28;20222;-89
2022/03/30 06:48:35;;;;;;;24.50;18.20;;;12.20;99.90;;;;;;5017548;28;20186;-90
2022/03/30 06:51:01;;;;;;;21.53;16.67;;;12.10;99.90;;;;;;5002370;28;20209;-90
2022/03/30 06:53:27;;;;;;;21.27;19.07;;;12.10;99.90;;;;;;5016979;28;20195;-89
2022/03/30 06:55:52;;;;;;;21.43;19.07;;;12.20;99.90;;;;;;5001066;28;20189;-90
2022/03/30 06:58:18;;;;;;;24.77;19.93;;;12.30;99.90;;;;;;5012710;28;20188;-90
2022/03/30 07:00:44;;;;;;;23.87;20.53;;;12.40;99.90;;;;;;5002909;28;20195;-90
2022/03/30 07:03:10;;;;;;;22.73;19.40;;;12.40;99.90;;;;;;4999442;28;20810;-90
2022/03/30 07:05:37;;;;;;;21.43;19.30;;;12.40;99.90;;;;;;4983986;28;20209;-89
2022/03/30 07:10:48;;;;;;;27.90;20.73;;;12.40;99.90;;;;;;5020037;28;20205;-90
2022/03/30 07:13:13;;;;;;;26.43;21.30;;;12.30;99.90;;;;;;5019546;28;20185;-90
2022/03/30 07:15:41;;;;;;;22.50;20.10;;;12.20;99.90;;;;;;5011231;28;20189;-89
2022/03/30 07:18:08;;;;;;;23.90;19.73;;;12.10;99.90;;;;;;5035977;28;20317;-89
2022/03/30 07:20:35;;;;;;;24.17;21.53;;;12.10;99.90;;;;;;5022665;28;20193;-90
2022/03/30 07:23:02;;;;;;;27.20;22.97;;;12.10;99.90;;;;;;5019737;28;20192;-89
2022/03/30 07:25:29;;;;;;;24.60;21.60;;;12.00;99.90;;;;;;5008800;28;20181;-90
2022/03/30 07:27:58;;;;;;;29.67;23.27;;;11.90;99.90;;;;;;4986054;28;20210;-89
2022/03/30 07:30:25;;;;;;;34.03;30.43;;;11.90;99.90;;;;;;5004214;28;20195;-89
2022/03/30 07:32:52;;;;;;;29.77;26.67;;;11.90;99.90;;;;;;5009593;28;20211;-89
2022/03/30 07:35:20;;;;;;;33.67;29.17;;;11.80;99.90;;;;;;5018168;28;20183;-89
2022/03/30 07:37:47;;;;;;;43.83;37.43;;;11.90;99.90;;;;;;5018004;28;20222;-90
2022/03/30 07:40:16;;;;;;;44.23;35.87;;;11.90;99.90;;;;;;5023625;28;20213;-89
2022/03/30 07:42:42;;;;;;;59.73;49.77;;;11.90;99.90;;;;;;5022621;28;20411;-89
2022/03/30 07:45:08;;;;;;;79.63;71.13;;;12.00;99.90;;;;;;5003268;28;20511;-89
2022/03/30 07:47:34;;;;;;;46.17;39.00;;;12.00;99.90;;;;;;5007268;28;20239;-89
2022/03/30 07:50:01;;;;;;;53.00;47.13;;;12.00;99.90;;;;;;5011098;28;20206;-89
2022/03/30 07:52:27;;;;;;;40.27;32.40;;;12.00;99.90;;;;;;5009986;28;20210;-89
2022/03/30 07:54:54;;;;;;;41.13;33.17;;;12.00;99.90;;;;;;5008493;28;20190;-89
2022/03/30 07:57:26;;;;;;;44.73;35.20;;;12.00;99.90;;;;;;5007408;28;20215;-89
2022/03/30 07:59:56;;;;;;;37.67;32.17;;;12.10;99.90;;;;;;5010066;28;20177;-89
2022/03/30 08:02:22;;;;;;;32.90;26.07;;;12.00;99.90;;;;;;5008573;28;20658;-89
2022/03/30 08:04:49;;;;;;;31.50;24.97;;;11.90;99.90;;;;;;5011124;28;20179;-89
2022/03/30 08:07:15;;;;;;;34.33;28.70;;;11.90;99.90;;;;;;5018689;28;20234;-90
2022/03/30 08:09:43;;;;;;;32.27;25.40;;;11.90;99.90;;;;;;5009676;28;20191;-89
2022/03/30 08:12:11;;;;;;;32.30;23.80;;;11.90;99.90;;;;;;5011500;28;20200;-90
2022/03/30 08:14:38;;;;;;;25.07;22.23;;;12.00;99.90;;;;;;5032616;28;20172;-91
2022/03/30 08:17:04;;;;;;;30.23;24.10;;;11.90;99.90;;;;;;5037173;28;20312;-89
2022/03/30 08:19:30;;;;;;;33.80;28.30;;;11.70;99.90;;;;;;5006744;28;20188;-89
2022/03/30 08:24:39;;;;;;;26.90;23.90;;;11.40;99.90;;;;;;5006233;28;20690;-90
2022/03/30 08:27:05;;;;;;;27.37;22.20;;;11.00;99.90;;;;;;5005523;28;20201;-90
2022/03/30 08:29:31;;;;;;;30.47;24.80;;;10.80;99.90;;;;;;5016137;28;20185;-90
2022/03/30 08:31:57;;;;;;;29.13;24.00;;;10.80;99.90;;;;;;5014856;28;20713;-90
2022/03/30 08:34:23;;;;;;;27.70;23.33;;;10.90;99.90;;;;;;5013547;28;20182;-90
2022/03/30 08:36:49;;;;;;;30.53;25.57;;;10.90;99.90;;;;;;5001287;28;20296;-90
2022/03/30 08:39:15;;;;;;;31.10;24.00;;;10.90;99.90;;;;;;5017825;28;20202;-90
2022/03/30 08:41:47;;;;;;;28.60;25.03;;;10.80;99.90;;;;;;4995368;28;20240;-90
2022/03/30 08:44:14;;;;;;;27.30;24.03;;;10.70;99.90;;;;;;5015556;28;20189;-91
2022/03/30 08:46:41;;;;;;;30.00;25.07;;;10.50;99.90;;;;;;5014264;28;20228;-91
2022/03/30 08:49:08;;;;;;;32.00;25.03;;;10.50;99.90;;;;;;5012388;28;20186;-91
2022/03/30 08:51:38;;;;;;;29.30;24.80;;;10.50;99.90;;;;;;5005296;28;20233;-90
2022/03/30 08:54:04;;;;;;;29.43;25.83;;;10.60;99.90;;;;;;4981879;28;20194;-91
2022/03/30 08:56:30;;;;;;;31.97;26.30;;;10.60;99.90;;;;;;5016924;28;20288;-90
2022/03/30 08:59:07;;;;;;;32.27;27.47;;;10.60;99.90;;;;;;5007781;28;20236;-91
2022/03/30 09:01:35;;;;;;;29.87;26.23;;;10.50;99.90;;;;;;5001256;28;20196;-90
2022/03/30 09:04:03;;;;;;;32.57;27.30;;;10.60;99.90;;;;;;5021245;28;20208;-91
2022/03/30 09:06:49;;;;;;;31.73;26.87;;;10.60;99.90;;;;;;5018434;28;20209;-90
2022/03/30 09:09:25;;;;;;;33.10;28.37;;;10.60;99.90;;;;;;5010427;28;20182;-91
2022/03/30 09:11:55;;;;;;;31.07;27.73;;;10.60;99.90;;;;;;5022943;28;20200;-92
2022/03/30 09:14:23;;;;;;;39.90;31.30;;;10.60;99.90;;;;;;5020040;28;20174;-91
2022/03/30 09:16:50;;;;;;;37.53;30.63;;;10.80;99.90;;;;;;5019247;28;20206;-90
2022/03/30 09:19:18;;;;;;;35.00;30.23;;;10.60;99.90;;;;;;5017083;28;20244;-90
2022/03/30 09:21:47;;;;;;;39.80;31.40;;;10.30;99.90;;;;;;5016792;28;20205;-90
2022/03/30 09:24:16;;;;;;;41.20;31.97;;;10.20;99.90;;;;;;5017249;28;20198;-90
2022/03/30 09:26:50;;;;;;;33.77;29.53;;;10.10;99.90;;;;;;4997926;28;20205;-90
2022/03/30 09:29:18;;;;;;;37.10;31.50;;;10.20;99.90;;;;;;5014253;28;20182;-90
2022/03/30 09:31:46;;;;;;;34.03;29.73;;;10.20;99.90;;;;;;5005755;28;20206;-87
2022/03/30 09:34:16;;;;;;;36.57;30.50;;;10.20;99.90;;;;;;4997692;28;20268;-91
2022/03/30 09:36:43;;;;;;;34.43;29.67;;;10.20;99.90;;;;;;4996742;28;20216;-91
2022/03/30 09:39:31;;;;;;;39.17;32.50;;;10.00;99.90;;;;;;5013677;28;20265;-90
2022/03/30 09:41:59;;;;;;;35.00;29.83;;;10.00;99.90;;;;;;4997440;28;20197;-90
2022/03/30 09:44:29;;;;;;;35.10;29.77;;;10.20;99.90;;;;;;5011248;28;20198;-91
2022/03/30 09:46:59;;;;;;;38.53;31.07;;;10.30;99.90;;;;;;4996390;28;20256;-90
2022/03/30 09:49:43;;;;;;;35.83;32.00;;;10.30;99.90;;;;;;5003204;28;20305;-90
2022/03/30 09:52:21;;;;;;;34.90;30.40;;;10.30;99.90;;;;;;5010623;28;20301;-91
2022/03/30 09:54:53;;;;;;;34.50;30.17;;;10.20;99.90;;;;;;5008307;28;20194;-91
2022/03/30 09:57:42;;;;;;;38.20;33.77;;;10.20;99.90;;;;;;4998473;28;20246;-91
2022/03/30 10:00:14;;;;;;;39.73;33.03;;;10.30;99.90;;;;;;5004181;28;20202;-90
2022/03/30 10:02:49;;;;;;;39.77;33.63;;;10.20;99.90;;;;;;5018598;28;20189;-91
2022/03/30 10:05:17;;;;;;;37.87;32.67;;;10.30;99.90;;;;;;5002320;28;20196;-92
2022/03/30 10:07:45;;;;;;;38.97;33.43;;;10.20;99.90;;;;;;5021524;28;20213;-91
2022/03/30 10:10:12;;;;;;;39.63;33.20;;;10.20;99.90;;;;;;5043269;28;20189;-92
2022/03/30 10:12:39;;;;;;;35.53;30.67;;;10.20;99.90;;;;;;5010527;28;20264;-90
2022/03/30 10:15:09;;;;;;;39.60;34.10;;;10.20;99.90;;;;;;5014289;28;20193;-87
2022/03/30 10:17:36;;;;;;;35.60;31.43;;;10.30;99.90;;;;;;5006482;28;20213;-90
2022/03/30 10:20:04;;;;;;;35.43;30.53;;;10.30;99.90;;;;;;5023816;28;20676;-90
2022/03/30 10:22:52;;;;;;;34.43;29.93;;;10.40;99.90;;;;;;4997661;28;20285;-90
2022/03/30 10:25:47;;;;;;;34.63;30.33;;;10.40;99.90;;;;;;5016916;28;20236;-90
2022/03/30 10:28:23;;;;;;;33.70;30.03;;;10.50;99.90;;;;;;5012591;28;20219;-91
2022/03/30 10:30:54;;;;;;;34.73;30.93;;;10.50;99.90;;;;;;5015250;28;20213;-90
2022/03/30 10:33:34;;;;;;;32.80;29.30;;;10.50;99.90;;;;;;5017431;28;20224;-91
2022/03/30 10:36:20;;;;;;;32.33;28.47;;;10.30;99.90;;;;;;4997265;28;20205;-90
2022/03/30 10:39:14;;;;;;;32.80;29.27;;;10.40;99.90;;;;;;5011961;28;20217;-90
2022/03/30 10:42:06;;;;;;;31.90;28.40;;;10.40;99.90;;;;;;5013812;28;20224;-90
2022/03/30 10:44:36;;;;;;;31.77;27.77;;;10.30;99.90;;;;;;5008532;28;20205;-90
2022/03/30 10:47:21;;;;;;;31.20;27.97;;;10.20;99.90;;;;;;5007259;28;20731;-91
2022/03/30 10:49:55;;;;;;;29.53;26.50;;;10.30;99.90;;;;;;5007289;28;20340;-91
2022/03/30 10:52:43;;;;;;;35.03;28.37;;;10.30;99.90;;;;;;5011277;28;20731;-90
2022/03/30 10:55:15;;;;;;;28.20;25.20;;;10.40;99.90;;;;;;5000493;28;20205;-90
2022/03/30 10:57:51;;;;;;;28.77;25.77;;;10.40;99.90;;;;;;5018971;28;20205;-91
2022/03/30 11:00:23;;;;;;;31.23;28.00;;;10.60;99.90;;;;;;5019636;28;20664;-90
2022/03/30 11:02:50;;;;;;;32.47;29.10;;;10.70;99.90;;;;;;5015166;28;20190;-90
2022/03/30 11:05:24;;;;;;;32.60;29.00;;;10.60;99.90;;;;;;5007952;28;20213;-91
2022/03/30 11:07:50;;;;;;;30.70;27.27;;;10.50;99.90;;;;;;5012226;28;20220;-90
2022/03/30 11:10:27;;;;;;;33.67;29.97;;;10.50;99.90;;;;;;4995720;28;20194;-90
2022/03/30 11:13:05;;;;;;;32.03;28.43;;;10.50;99.90;;;;;;5024061;28;20189;-90
2022/03/30 11:15:58;;;;;;;32.93;29.43;;;10.50;99.90;;;;;;5010295;28;20681;-91
2022/03/30 11:18:24;;;;;;;33.67;30.03;;;10.50;99.90;;;;;;5011821;28;20196;-90
2022/03/30 11:21:08;;;;;;;32.33;27.53;;;10.40;99.90;;;;;;5010424;28;20218;-90
2022/03/30 11:23:52;;;;;;;33.93;30.23;;;10.40;99.90;;;;;;5012919;28;20199;-90
2022/03/30 11:26:18;;;;;;;32.53;29.07;;;10.40;99.90;;;;;;5006383;28;20607;-91
2022/03/30 11:28:44;;;;;;;32.73;28.10;;;10.30;99.90;;;;;;5006835;28;20222;-91
2022/03/30 11:31:20;;;;;;;30.60;27.30;;;10.50;99.90;;;;;;5021181;28;20229;-90
2022/03/30 11:34:26;;;;;;;30.13;27.13;;;10.50;99.90;;;;;;5014639;28;20269;-91
2022/03/30 11:36:53;;;;;;;33.10;29.53;;;10.70;99.90;;;;;;5011696;28;20216;-90
2022/03/30 11:39:32;;;;;;;34.47;30.73;;;10.80;99.90;;;;;;4998317;28;20409;-91
2022/03/30 11:42:00;;;;;;;38.07;31.80;;;10.80;99.90;;;;;;5001322;28;20167;-89
2022/03/30 11:47:16;;;;;;;32.47;28.83;;;10.90;99.90;;;;;;5018074;28;20233;-90
2022/03/30 11:49:52;;;;;;;33.10;29.60;;;11.00;99.90;;;;;;5018968;28;20201;-89
2022/03/30 11:52:18;;;;;;;32.37;28.90;;;11.00;99.90;;;;;;5016836;28;20211;-89
2022/03/30 11:54:49;;;;;;;35.20;31.40;;;11.10;99.90;;;;;;5004115;28;20177;-89
2022/03/30 11:57:16;;;;;;;30.97;27.73;;;11.20;99.90;;;;;;4999756;28;20287;-90
2022/03/30 11:59:43;;;;;;;34.50;30.83;;;11.30;99.90;;;;;;5007324;28;20442;-92
2022/03/30 12:02:09;;;;;;;34.23;30.63;;;11.40;99.90;;;;;;5027493;28;20180;-90
2022/03/30 12:04:35;;;;;;;35.43;31.73;;;11.40;99.90;;;;;;5014040;28;20197;-88
2022/03/30 12:07:01;;;;;;;35.70;31.90;;;11.60;99.90;;;;;;5013776;28;20231;-88
2022/03/30 12:09:26;;;;;;;38.40;33.37;;;11.70;99.90;;;;;;5020821;28;20231;-89
2022/03/30 12:11:52;;;;;;;36.07;32.17;;;11.70;99.90;;;;;;5020062;28;20305;-88
2022/03/30 12:14:26;;;;;;;35.67;31.77;;;11.50;99.90;;;;;;5017898;28;20192;-88
2022/03/30 12:16:52;;;;;;;35.23;31.13;;;11.40;99.90;;;;;;5016753;28;20215;-88
2022/03/30 12:19:19;;;;;;;35.37;31.67;;;11.30;99.90;;;;;;5009817;28;20186;-88
2022/03/30 12:21:45;;;;;;;42.30;32.87;;;11.30;99.90;;;;;;5018248;28;20194;-88
2022/03/30 12:24:11;;;;;;;37.23;31.60;;;11.40;99.90;;;;;;5023414;28;20673;-88
2022/03/30 12:26:38;;;;;;;35.67;31.90;;;11.40;99.90;;;;;;5019638;28;20698;-88
2022/03/30 12:29:05;;;;;;;37.87;33.73;;;11.60;99.90;;;;;;5008728;28;20194;-89
2022/03/30 12:31:42;;;;;;;34.43;30.73;;;11.70;99.80;;;;;;5002265;28;20215;-89
2022/03/30 12:34:19;;;;;;;33.60;30.07;;;11.60;99.90;;;;;;5020673;28;20177;-89
2022/03/30 12:36:50;;;;;;;34.90;31.30;;;11.70;99.90;;;;;;4998796;28;20217;-89
2022/03/30 12:39:39;;;;;;;33.33;29.80;;;11.70;99.90;;;;;;4995504;28;20174;-89
2022/03/30 12:42:12;;;;;;;36.57;32.70;;;11.80;99.50;;;;;;4997321;28;20184;-90
2022/03/30 12:44:40;;;;;;;33.60;30.10;;;11.60;99.90;;;;;;4998927;28;20185;-90